Weather History for KATS - February, 2013

Change the Weather History Date:

Sunday, February 24, 2013

  Actual Average Record
Temperature  
Mean Temperature 50 °F -  
Max Temperature 64 °F 65 °F 85 °F (1982)
Min Temperature 37 °F 27 °F 9 °F (1965)
Degree Days  
Heating Degree Days 14    
Moisture  
Dew Point 17 °F    
Average Humidity 29    
Maximum Humidity 56    
Minimum Humidity 14    
Precipitation  
Precipitation 0.00 in - - ()
Sea Level Pressure  
Sea Level Pressure 29.67 in    
Wind  
Wind Speed 14 mph (WSW)    
Max Wind Speed 37 mph    
Max Gust Speed 47 mph    
Visibility 10 miles    
Events      
Averages and records for this station are not official NWS values.
T = Trace of Precipitation, MM = Missing Value Source: NWS Daily Summary

Daily Weather History Graph

Daily Weather History Graph

Search for Another Location

Airport or City:

Trip Planner

Search our weather history database for the weather conditions in past years. The results will help you decide how hot, cold, wet, or windy it might be!

Date:

Astronomy

Feb. 24, 2013 Rise Set
Actual Time 6:31 AM MST 5:51 PM MST
Civil Twilight 6:06 AM MST 6:16 PM MST
Nautical Twilight 5:37 AM MST 6:44 PM MST
Astronomical Twilight 5:09 AM MST 7:13 PM MST
Moon 5:04 PM MST (2/24) 5:28 AM MST (2/24)
Length of Visible Light 12h 09m
Length of Day
11h 20m
Waxing Gibbous, 99% of the Moon is Illuminated
Feb 24
Waxing Gibbous
Feb 25
Full
Mar 4
Last Quarter
Mar 11
New
Mar 19
First Quarter

Hourly Weather History & Observations

Time (MST) Temp. Windchill Dew Point Humidity Pressure Visibility Wind Dir Wind Speed Gust Speed Precip Events Conditions
12:15 AM 46.4 °F 41.9 °F 15.8 °F 29% 29.74 in 10.0 mi South 9.2 mph - N/A   Clear
12:35 AM 44.6 °F 41.4 °F 14.0 °F 29% 29.74 in 10.0 mi SE 5.8 mph - N/A   Clear
12:55 AM 42.8 °F 39.3 °F 14.0 °F 31% 29.74 in 10.0 mi SSE 5.8 mph - N/A   Clear
1:15 AM 44.6 °F 40.7 °F 14.0 °F 29% 29.73 in 10.0 mi South 6.9 mph - N/A   Clear
1:35 AM 41.0 °F 35.2 °F 14.0 °F 33% 29.72 in 10.0 mi South 9.2 mph - N/A   Clear
1:55 AM 41.0 °F 35.8 °F 14.0 °F 33% 29.72 in 10.0 mi SSE 8.1 mph - N/A   Clear
2:15 AM 41.0 °F 37.1 °F 14.0 °F 33% 29.71 in 10.0 mi SW 5.8 mph - N/A   Clear
2:35 AM 41.0 °F 37.1 °F 14.0 °F 33% 29.70 in 10.0 mi SW 5.8 mph - N/A   Clear
2:55 AM 44.6 °F 39.2 °F 14.0 °F 29% 29.69 in 10.0 mi SSW 10.4 mph - N/A   Clear
3:15 AM 42.8 °F 36.2 °F 14.0 °F 31% 29.69 in 10.0 mi South 12.7 mph - N/A   Clear
3:35 AM 46.4 °F 41.1 °F 14.0 °F 27% 29.68 in 10.0 mi South 11.5 mph - N/A   Clear
3:55 AM 48.2 °F - 14.0 °F 25% 29.68 in 10.0 mi South 10.4 mph - N/A   Clear
4:15 AM 41.0 °F 35.2 °F 14.0 °F 33% 29.68 in 10.0 mi SW 9.2 mph - N/A   Clear
4:35 AM 42.8 °F 40.1 °F 14.0 °F 31% 29.69 in 10.0 mi West 4.6 mph - N/A   Clear
5:15 AM 41.0 °F 39.0 °F 14.0 °F 33% 29.70 in 10.0 mi SW 3.5 mph - N/A   Clear
5:35 AM 39.2 °F 32.5 °F 14.0 °F 36% 29.70 in 10.0 mi West 10.4 mph - N/A   Clear
5:55 AM 44.6 °F 38.8 °F 14.0 °F 29% 29.70 in 10.0 mi WSW 11.5 mph - N/A   Clear
6:15 AM 50.0 °F - 15.8 °F 26% 29.71 in 10.0 mi West 12.7 mph - N/A   Clear
6:35 AM 46.4 °F 40.4 °F 15.8 °F 29% 29.71 in 10.0 mi West 13.8 mph - N/A   Clear
6:55 AM 46.4 °F 41.1 °F 15.8 °F 29% 29.71 in 10.0 mi West 11.5 mph - N/A   Clear
7:15 AM 48.2 °F - 15.8 °F 27% 29.72 in 10.0 mi West 10.4 mph - N/A   Clear
7:35 AM 50.0 °F - 15.8 °F 26% 29.72 in 10.0 mi SW 8.1 mph - N/A   Clear
7:55 AM 53.6 °F - 17.6 °F 24% 29.72 in 10.0 mi SW 5.8 mph - N/A   Clear
8:15 AM 55.4 °F - 15.8 °F 21% 29.72 in 10.0 mi SW 9.2 mph - N/A   Clear
8:35 AM 55.4 °F - 15.8 °F 21% 29.73 in 10.0 mi SSW 9.2 mph - N/A   Clear
8:55 AM 57.2 °F - 15.8 °F 20% 29.72 in 10.0 mi South 5.8 mph - N/A   Clear
9:15 AM 57.2 °F - 15.8 °F 20% 29.72 in 10.0 mi WSW 5.8 mph - N/A   Clear
9:35 AM 59.0 °F - 15.8 °F 19% 29.71 in 10.0 mi SW 12.7 mph - N/A   Clear
9:55 AM 59.0 °F - 15.8 °F 19% 29.70 in 10.0 mi SW 11.5 mph 17.3 mph N/A   Clear
10:15 AM 59.0 °F - 15.8 °F 19% 29.69 in 10.0 mi SW 17.3 mph - N/A   Clear
10:35 AM 62.6 °F - 14.0 °F 15% 29.68 in 10.0 mi WSW 28.8 mph 39.1 mph N/A   Clear
10:55 AM 62.6 °F - 14.0 °F 15% 29.66 in 10.0 mi WSW 27.6 mph 39.1 mph N/A   Clear
11:15 AM 62.6 °F - 14.0 °F 15% 29.65 in 10.0 mi WSW 34.5 mph 42.6 mph N/A   Clear
11:35 AM 62.6 °F - 14.0 °F 15% 29.64 in 10.0 mi SW 32.2 mph 47.2 mph N/A   Clear
11:55 AM 62.6 °F - 14.0 °F 15% 29.62 in 10.0 mi SW 28.8 mph 44.9 mph N/A   Clear
12:15 PM 62.6 °F - 12.2 °F 14% 29.60 in 10.0 mi WSW 36.8 mph 47.2 mph N/A   Clear
12:35 PM 62.6 °F - 12.2 °F 14% 29.59 in 10.0 mi WSW 35.7 mph 42.6 mph N/A   Clear
12:55 PM 62.6 °F - 14.0 °F 15% 29.58 in 10.0 mi WSW 34.5 mph 43.7 mph N/A   Clear
1:15 PM 62.6 °F - 14.0 °F 15% 29.58 in 10.0 mi WSW 27.6 mph 36.8 mph N/A   Clear
1:35 PM 64.4 °F - 14.0 °F 14% 29.57 in 10.0 mi WSW 18.4 mph 35.7 mph N/A   Clear
1:55 PM 62.6 °F - 12.2 °F 14% 29.56 in 10.0 mi WSW 19.6 mph 36.8 mph N/A   Partly Cloudy
2:15 PM 62.6 °F - 14.0 °F 15% 29.55 in 10.0 mi West 21.9 mph 31.1 mph N/A   Partly Cloudy
2:35 PM 62.6 °F - 12.2 °F 14% 29.55 in 10.0 mi WSW 21.9 mph 38.0 mph N/A   Clear
2:55 PM 62.6 °F - 14.0 °F 15% 29.53 in 10.0 mi West 19.6 mph 28.8 mph N/A   Clear
3:15 PM 59.0 °F - 17.6 °F 20% 29.54 in 10.0 mi WNW 28.8 mph 36.8 mph N/A   Clear
3:35 PM 59.0 °F - 19.4 °F 22% 29.54 in 10.0 mi NW 20.7 mph - N/A   Clear
3:55 PM 59.0 °F - 19.4 °F 22% 29.56 in 9.0 mi WNW 24.2 mph 38.0 mph N/A   Clear
4:15 PM 57.2 °F - 21.2 °F 25% 29.56 in 10.0 mi West 28.8 mph 34.5 mph N/A   Clear
4:35 PM 55.4 °F - 23.0 °F 29% 29.58 in 10.0 mi WNW 29.9 mph 36.8 mph N/A   Clear
4:55 PM 53.6 °F - 26.6 °F 35% 29.60 in 9.0 mi NW 31.1 mph 38.0 mph N/A   Clear
5:15 PM 50.0 °F - 26.6 °F 40% 29.62 in 7.0 mi NW 26.5 mph 33.4 mph N/A   Clear
5:35 PM 48.2 °F - 26.6 °F 43% 29.65 in 7.0 mi WNW 25.3 mph 33.4 mph N/A   Clear
5:55 PM 46.4 °F 38.3 °F 26.6 °F 46% 29.66 in 7.0 mi NW 23.0 mph 28.8 mph N/A   Clear
6:15 PM 46.4 °F 37.9 °F 24.8 °F 43% 29.67 in 8.0 mi NW 25.3 mph 29.9 mph N/A   Clear
6:35 PM 46.4 °F 39.0 °F 24.8 °F 43% 29.68 in 10.0 mi NW 19.6 mph - N/A   Clear
6:55 PM 44.6 °F 36.9 °F 24.8 °F 46% 29.69 in 10.0 mi NW 18.4 mph - N/A   Clear
7:15 PM 44.6 °F 36.9 °F 24.8 °F 46% 29.69 in 10.0 mi NW 18.4 mph - N/A   Clear
7:35 PM 44.6 °F 39.7 °F 24.8 °F 46% 29.70 in 10.0 mi NW 9.2 mph - N/A   Clear
7:55 PM 44.6 °F 41.4 °F 23.0 °F 43% 29.69 in 10.0 mi WSW 5.8 mph - N/A   Clear
8:15 PM 44.6 °F 39.2 °F 23.0 °F 43% 29.69 in 10.0 mi West 10.4 mph - N/A   Clear
8:35 PM 44.6 °F 37.2 °F 23.0 °F 43% 29.69 in 10.0 mi West 17.3 mph - N/A   Clear
8:55 PM 44.6 °F 35.3 °F 15.8 °F 31% 29.70 in 10.0 mi West 26.5 mph 33.4 mph N/A   Clear
9:15 PM 41.0 °F 30.7 °F 19.4 °F 42% 29.71 in 10.0 mi WNW 25.3 mph 34.5 mph N/A   Clear
9:35 PM 39.2 °F 29.6 °F 19.4 °F 45% 29.71 in 10.0 mi WNW 19.6 mph - N/A   Clear
9:55 PM 39.2 °F 29.6 °F 17.6 °F 42% 29.73 in 10.0 mi WNW 19.6 mph 24.2 mph N/A   Clear
10:15 PM 39.2 °F 29.3 °F 17.6 °F 42% 29.74 in 10.0 mi WNW 20.7 mph 24.2 mph N/A   Mostly Cloudy
10:35 PM 39.2 °F 30.2 °F 15.8 °F 39% 29.74 in 10.0 mi WNW 17.3 mph 23.0 mph N/A   Mostly Cloudy
10:55 PM 39.2 °F 29.8 °F 14.0 °F 36% 29.74 in 10.0 mi WNW 18.4 mph 25.3 mph N/A   Scattered Clouds
11:15 PM 39.2 °F 29.6 °F 14.0 °F 36% 29.74 in 10.0 mi WNW 19.6 mph 28.8 mph N/A   Clear
11:35 PM 37.4 °F 27.2 °F 15.8 °F 41% 29.74 in 10.0 mi WNW 19.6 mph 25.3 mph N/A   Clear
11:55 PM 37.4 °F 25.4 °F 23.0 °F 56% 29.74 in 10.0 mi WNW 27.6 mph 33.4 mph N/A   Mostly Cloudy